<?xml version="1.0" encoding="UTF-8" standalone="no" ?><gpx xmlns="http://www.topografix.com/GPX/1/1" xmlns:gpxx="http://www.garmin.com/xmlschemas/GpxExtensions/v3" xmlns:wptx1="http://www.garmin.com/xmlschemas/WaypointExtension/v1" xmlns:gpxtpx="http://www.garmin.com/xmlschemas/TrackPointExtension/v1" creator="GuideVTT.com" version="1.1" xmlns:xsi="http://www.w3.org/2001/XMLSchema-instance" xsi:schemaLocation="http://www.topografix.com/GPX/1/1 http://www.topografix.com/GPX/1/1/gpx.xsd http://www.garmin.com/xmlschemas/GpxExtensions/v3 http://www8.garmin.com/xmlschemas/GpxExtensionsv3.xsd http://www.garmin.com/xmlschemas/WaypointExtension/v1 http://www8.garmin.com/xmlschemas/WaypointExtensionv1.xsd http://www.garmin.com/xmlschemas/TrackPointExtension/v1 http://www.garmin.com/xmlschemas/TrackPointExtensionv1.xsd">
<metadata><link href="http://www.garmin.com"><text>Garmin International</text></link><time>2013-06-22T15:13:50Z</time></metadata>
<trk><name>rp_vtt_2011_1.gpx</name><extensions><gpxx:TrackExtension><gpxx:DisplayColor>Cyan</gpxx:DisplayColor></gpxx:TrackExtension></extensions><trkseg>
<trkpt lat="46.09921217" lon="7.51466990"><ele></ele><time>2014-4-2T14:56:14Z</time></trkpt>
<trkpt lat="46.10049963" lon="7.51398325"><ele></ele><time>2014-4-2T14:56:17Z</time></trkpt>
<trkpt lat="46.10223770" lon="7.51389742"><ele></ele><time>2014-4-2T14:56:20Z</time></trkpt>
<trkpt lat="46.10251665" lon="7.51389742"><ele></ele><time>2014-4-2T14:56:23Z</time></trkpt>
<trkpt lat="46.10311747" lon="7.51449823"><ele></ele><time>2014-4-2T14:56:26Z</time></trkpt>
<trkpt lat="46.10384703" lon="7.51434803"><ele></ele><time>2014-4-2T14:56:29Z</time></trkpt>
<trkpt lat="46.10404015" lon="7.51464844"><ele></ele><time>2014-4-2T14:56:32Z</time></trkpt>
<trkpt lat="46.10434055" lon="7.51466990"><ele></ele><time>2014-4-2T14:56:35Z</time></trkpt>
<trkpt lat="46.10541344" lon="7.51323223"><ele></ele><time>2014-4-2T14:56:38Z</time></trkpt>
<trkpt lat="46.10597134" lon="7.51348972"><ele></ele><time>2014-4-2T14:56:41Z</time></trkpt>
<trkpt lat="46.10625029" lon="7.51336098"><ele></ele><time>2014-4-2T14:56:44Z</time></trkpt>
<trkpt lat="46.10655069" lon="7.51250267"><ele></ele><time>2014-4-2T14:56:47Z</time></trkpt>
<trkpt lat="46.10738754" lon="7.51211643"><ele></ele><time>2014-4-2T14:56:50Z</time></trkpt>
<trkpt lat="46.10788107" lon="7.51089334"><ele></ele><time>2014-4-2T14:56:53Z</time></trkpt>
<trkpt lat="46.10837460" lon="7.51117229"><ele></ele><time>2014-4-2T14:56:56Z</time></trkpt>
<trkpt lat="46.10858917" lon="7.51074314"><ele></ele><time>2014-4-2T14:56:59Z</time></trkpt>
<trkpt lat="46.10968351" lon="7.50975609"><ele></ele><time>2014-4-2T14:57:2Z</time></trkpt>
<trkpt lat="46.11030579" lon="7.50977755"><ele></ele><time>2014-4-2T14:57:5Z</time></trkpt>
<trkpt lat="46.11062765" lon="7.50934839"><ele></ele><time>2014-4-2T14:57:8Z</time></trkpt>
<trkpt lat="46.11099243" lon="7.50919819"><ele></ele><time>2014-4-2T14:57:11Z</time></trkpt>
<trkpt lat="46.11118555" lon="7.50866175"><ele></ele><time>2014-4-2T14:57:14Z</time></trkpt>
<trkpt lat="46.11195803" lon="7.50799656"><ele></ele><time>2014-4-2T14:57:17Z</time></trkpt>
<trkpt lat="46.11240864" lon="7.50705242"><ele></ele><time>2014-4-2T14:57:20Z</time></trkpt>
<trkpt lat="46.11290216" lon="7.50651598"><ele></ele><time>2014-4-2T14:57:23Z</time></trkpt>
<trkpt lat="46.11328840" lon="7.50531435"><ele></ele><time>2014-4-2T14:57:26Z</time></trkpt>
<trkpt lat="46.11339569" lon="7.50548601"><ele></ele><time>2014-4-2T14:57:29Z</time></trkpt>
<trkpt lat="46.11303091" lon="7.50814676"><ele></ele><time>2014-4-2T14:57:32Z</time></trkpt>
<trkpt lat="46.11215115" lon="7.51177311"><ele></ele><time>2014-4-2T14:57:35Z</time></trkpt>
<trkpt lat="46.11225843" lon="7.51175165"><ele></ele><time>2014-4-2T14:57:38Z</time></trkpt>
<trkpt lat="46.11255884" lon="7.51110792"><ele></ele><time>2014-4-2T14:57:41Z</time></trkpt>
<trkpt lat="46.11337423" lon="7.51018524"><ele></ele><time>2014-4-2T14:57:44Z</time></trkpt>
<trkpt lat="46.11386776" lon="7.50943422"><ele></ele><time>2014-4-2T14:57:47Z</time></trkpt>
<trkpt lat="46.11427546" lon="7.50911236"><ele></ele><time>2014-4-2T14:57:50Z</time></trkpt>
<trkpt lat="46.11431837" lon="7.50872612"><ele></ele><time>2014-4-2T14:57:53Z</time></trkpt>
<trkpt lat="46.11466169" lon="7.50849009"><ele></ele><time>2014-4-2T14:57:56Z</time></trkpt>
<trkpt lat="46.11489773" lon="7.50803947"><ele></ele><time>2014-4-2T14:57:59Z</time></trkpt>
<trkpt lat="46.11528397" lon="7.50784636"><ele></ele><time>2014-4-2T14:58:2Z</time></trkpt>
<trkpt lat="46.11517668" lon="7.50921965"><ele></ele><time>2014-4-2T14:58:5Z</time></trkpt>
<trkpt lat="46.11459732" lon="7.51095772"><ele></ele><time>2014-4-2T14:58:8Z</time></trkpt>
<trkpt lat="46.11391068" lon="7.51207352"><ele></ele><time>2014-4-2T14:58:11Z</time></trkpt>
<trkpt lat="46.11421108" lon="7.51295328"><ele></ele><time>2014-4-2T14:58:14Z</time></trkpt>
<trkpt lat="46.11421108" lon="7.51224518"><ele></ele><time>2014-4-2T14:58:17Z</time></trkpt>
<trkpt lat="46.11500502" lon="7.51153708"><ele></ele><time>2014-4-2T14:58:20Z</time></trkpt>
<trkpt lat="46.11558437" lon="7.51042128"><ele></ele><time>2014-4-2T14:58:23Z</time></trkpt>
<trkpt lat="46.11635685" lon="7.51001358"><ele></ele><time>2014-4-2T14:58:26Z</time></trkpt>
<trkpt lat="46.11672163" lon="7.50924110"><ele></ele><time>2014-4-2T14:58:29Z</time></trkpt>
<trkpt lat="46.11687183" lon="7.50924110"><ele></ele><time>2014-4-2T14:58:32Z</time></trkpt>
<trkpt lat="46.11667871" lon="7.51104355"><ele></ele><time>2014-4-2T14:58:35Z</time></trkpt>
<trkpt lat="46.11637831" lon="7.51194477"><ele></ele><time>2014-4-2T14:58:38Z</time></trkpt>
<trkpt lat="46.11607790" lon="7.51396179"><ele></ele><time>2014-4-2T14:58:41Z</time></trkpt>
<trkpt lat="46.11629248" lon="7.51574278"><ele></ele><time>2014-4-2T14:58:44Z</time></trkpt>
<trkpt lat="46.11620665" lon="7.51694441"><ele></ele><time>2014-4-2T14:58:47Z</time></trkpt>
<trkpt lat="46.11569166" lon="7.51741648"><ele></ele><time>2014-4-2T14:58:50Z</time></trkpt>
<trkpt lat="46.11541271" lon="7.51793146"><ele></ele><time>2014-4-2T14:58:53Z</time></trkpt>
<trkpt lat="46.11534834" lon="7.51893997"><ele></ele><time>2014-4-2T14:58:56Z</time></trkpt>
<trkpt lat="46.11569166" lon="7.51984119"><ele></ele><time>2014-4-2T14:58:59Z</time></trkpt>
<trkpt lat="46.11567020" lon="7.52037764"><ele></ele><time>2014-4-2T14:59:2Z</time></trkpt>
<trkpt lat="46.11605644" lon="7.52052784"><ele></ele><time>2014-4-2T14:59:5Z</time></trkpt>
<trkpt lat="46.11612082" lon="7.52012014"><ele></ele><time>2014-4-2T14:59:8Z</time></trkpt>
<trkpt lat="46.11629248" lon="7.52020597"><ele></ele><time>2014-4-2T14:59:11Z</time></trkpt>
<trkpt lat="46.11607790" lon="7.52134323"><ele></ele><time>2014-4-2T14:59:14Z</time></trkpt>
<trkpt lat="46.11639977" lon="7.52108574"><ele></ele><time>2014-4-2T14:59:17Z</time></trkpt>
<trkpt lat="46.11650705" lon="7.52061367"><ele></ele><time>2014-4-2T14:59:20Z</time></trkpt>
<trkpt lat="46.11732244" lon="7.52033472"><ele></ele><time>2014-4-2T14:59:23Z</time></trkpt>
<trkpt lat="46.11736536" lon="7.51941204"><ele></ele><time>2014-4-2T14:59:26Z</time></trkpt>
<trkpt lat="46.11783743" lon="7.51921892"><ele></ele><time>2014-4-2T14:59:29Z</time></trkpt>
<trkpt lat="46.11783743" lon="7.52091408"><ele></ele><time>2014-4-2T14:59:32Z</time></trkpt>
<trkpt lat="46.11740828" lon="7.52168655"><ele></ele><time>2014-4-2T14:59:35Z</time></trkpt>
<trkpt lat="46.11738682" lon="7.52211571"><ele></ele><time>2014-4-2T14:59:38Z</time></trkpt>
<trkpt lat="46.11708641" lon="7.52282381"><ele></ele><time>2014-4-2T14:59:41Z</time></trkpt>
<trkpt lat="46.11704350" lon="7.52374649"><ele></ele><time>2014-4-2T14:59:44Z</time></trkpt>
<trkpt lat="46.11760139" lon="7.52254486"><ele></ele><time>2014-4-2T14:59:47Z</time></trkpt>
<trkpt lat="46.11813784" lon="7.52209425"><ele></ele><time>2014-4-2T14:59:50Z</time></trkpt>
<trkpt lat="46.11856699" lon="7.52207279"><ele></ele><time>2014-4-2T14:59:53Z</time></trkpt>
<trkpt lat="46.11899614" lon="7.52145052"><ele></ele><time>2014-4-2T14:59:56Z</time></trkpt>
<trkpt lat="46.11925364" lon="7.52063513"><ele></ele><time>2014-4-2T14:59:59Z</time></trkpt>
<trkpt lat="46.11931801" lon="7.52072096"><ele></ele><time>2014-4-2T15:0:2Z</time></trkpt>
<trkpt lat="46.11916780" lon="7.52248049"><ele></ele><time>2014-4-2T15:0:5Z</time></trkpt>
<trkpt lat="46.11820221" lon="7.52389669"><ele></ele><time>2014-4-2T15:0:8Z</time></trkpt>
<trkpt lat="46.11807346" lon="7.52572060"><ele></ele><time>2014-4-2T15:0:11Z</time></trkpt>
<trkpt lat="46.11858845" lon="7.52447605"><ele></ele><time>2014-4-2T15:0:14Z</time></trkpt>
<trkpt lat="46.11970425" lon="7.52471209"><ele></ele><time>2014-4-2T15:0:17Z</time></trkpt>
<trkpt lat="46.12114191" lon="7.52194405"><ele></ele><time>2014-4-2T15:0:20Z</time></trkpt>
<trkpt lat="46.12122774" lon="7.52104282"><ele></ele><time>2014-4-2T15:0:23Z</time></trkpt>
<trkpt lat="46.12150669" lon="7.52039909"><ele></ele><time>2014-4-2T15:0:26Z</time></trkpt>
<trkpt lat="46.12180710" lon="7.51743793"><ele></ele><time>2014-4-2T15:0:29Z</time></trkpt>
<trkpt lat="46.12193584" lon="7.51692295"><ele></ele><time>2014-4-2T15:0:32Z</time></trkpt>
<trkpt lat="46.12234354" lon="7.51621485"><ele></ele><time>2014-4-2T15:0:35Z</time></trkpt>
<trkpt lat="46.12309456" lon="7.51561403"><ele></ele><time>2014-4-2T15:0:38Z</time></trkpt>
<trkpt lat="46.12395287" lon="7.51563549"><ele></ele><time>2014-4-2T15:0:41Z</time></trkpt>
<trkpt lat="46.12575531" lon="7.51696587"><ele></ele><time>2014-4-2T15:0:44Z</time></trkpt>
<trkpt lat="46.12558365" lon="7.51550674"><ele></ele><time>2014-4-2T15:0:47Z</time></trkpt>
<trkpt lat="46.12607718" lon="7.51404762"><ele></ele><time>2014-4-2T15:0:50Z</time></trkpt>
<trkpt lat="46.12594843" lon="7.51411200"><ele></ele><time>2014-4-2T15:0:53Z</time></trkpt>
<trkpt lat="46.12601280" lon="7.51443386"><ele></ele><time>2014-4-2T15:0:56Z</time></trkpt>
<trkpt lat="46.12554073" lon="7.51574278"><ele></ele><time>2014-4-2T15:0:59Z</time></trkpt>
<trkpt lat="46.12575531" lon="7.51692295"><ele></ele><time>2014-4-2T15:1:2Z</time></trkpt>
<trkpt lat="46.12560511" lon="7.51698732"><ele></ele><time>2014-4-2T15:1:5Z</time></trkpt>
<trkpt lat="46.12399578" lon="7.51569986"><ele></ele><time>2014-4-2T15:1:8Z</time></trkpt>
<trkpt lat="46.12309456" lon="7.51563549"><ele></ele><time>2014-4-2T15:1:11Z</time></trkpt>
<trkpt lat="46.12234354" lon="7.51627922"><ele></ele><time>2014-4-2T15:1:14Z</time></trkpt>
<trkpt lat="46.12191439" lon="7.51703024"><ele></ele><time>2014-4-2T15:1:17Z</time></trkpt>
<trkpt lat="46.12152815" lon="7.52042055"><ele></ele><time>2014-4-2T15:1:20Z</time></trkpt>
<trkpt lat="46.12124920" lon="7.52106428"><ele></ele><time>2014-4-2T15:1:23Z</time></trkpt>
<trkpt lat="46.12122774" lon="7.52179384"><ele></ele><time>2014-4-2T15:1:26Z</time></trkpt>
<trkpt lat="46.12051964" lon="7.52333879"><ele></ele><time>2014-4-2T15:1:29Z</time></trkpt>
<trkpt lat="46.11961842" lon="7.52481937"><ele></ele><time>2014-4-2T15:1:32Z</time></trkpt>
<trkpt lat="46.11903906" lon="7.52451897"><ele></ele><time>2014-4-2T15:1:35Z</time></trkpt>
<trkpt lat="46.11845970" lon="7.52469063"><ele></ele><time>2014-4-2T15:1:38Z</time></trkpt>
<trkpt lat="46.11813784" lon="7.52567768"><ele></ele><time>2014-4-2T15:1:41Z</time></trkpt>
<trkpt lat="46.11800909" lon="7.52563477"><ele></ele><time>2014-4-2T15:1:44Z</time></trkpt>
<trkpt lat="46.11800909" lon="7.52550602"><ele></ele><time>2014-4-2T15:1:47Z</time></trkpt>
<trkpt lat="46.11818075" lon="7.52400398"><ele></ele><time>2014-4-2T15:1:50Z</time></trkpt>
<trkpt lat="46.11910343" lon="7.52252340"><ele></ele><time>2014-4-2T15:1:53Z</time></trkpt>
<trkpt lat="46.11929655" lon="7.52065659"><ele></ele><time>2014-4-2T15:1:56Z</time></trkpt>
<trkpt lat="46.11899614" lon="7.52149343"><ele></ele><time>2014-4-2T15:1:59Z</time></trkpt>
<trkpt lat="46.11854553" lon="7.52211571"><ele></ele><time>2014-4-2T15:2:2Z</time></trkpt>
<trkpt lat="46.11803055" lon="7.52218008"><ele></ele><time>2014-4-2T15:2:5Z</time></trkpt>
<trkpt lat="46.11757994" lon="7.52265215"><ele></ele><time>2014-4-2T15:2:8Z</time></trkpt>
<trkpt lat="46.11715078" lon="7.52370358"><ele></ele><time>2014-4-2T15:2:11Z</time></trkpt>
<trkpt lat="46.11702204" lon="7.52370358"><ele></ele><time>2014-4-2T15:2:14Z</time></trkpt>
<trkpt lat="46.11706495" lon="7.52297401"><ele></ele><time>2014-4-2T15:2:17Z</time></trkpt>
<trkpt lat="46.11740828" lon="7.52160072"><ele></ele><time>2014-4-2T15:2:20Z</time></trkpt>
<trkpt lat="46.11775160" lon="7.52099991"><ele></ele><time>2014-4-2T15:2:23Z</time></trkpt>
<trkpt lat="46.11785889" lon="7.51975536"><ele></ele><time>2014-4-2T15:2:26Z</time></trkpt>
<trkpt lat="46.11773014" lon="7.51915455"><ele></ele><time>2014-4-2T15:2:29Z</time></trkpt>
<trkpt lat="46.11747265" lon="7.51936913"><ele></ele><time>2014-4-2T15:2:32Z</time></trkpt>
<trkpt lat="46.11727953" lon="7.51973391"><ele></ele><time>2014-4-2T15:2:35Z</time></trkpt>
<trkpt lat="46.11736536" lon="7.52009869"><ele></ele><time>2014-4-2T15:2:38Z</time></trkpt>
<trkpt lat="46.11721516" lon="7.52042055"><ele></ele><time>2014-4-2T15:2:41Z</time></trkpt>
<trkpt lat="46.11648560" lon="7.52065659"><ele></ele><time>2014-4-2T15:2:44Z</time></trkpt>
<trkpt lat="46.11616373" lon="7.52132177"><ele></ele><time>2014-4-2T15:2:47Z</time></trkpt>
<trkpt lat="46.11603498" lon="7.52138615"><ele></ele><time>2014-4-2T15:2:50Z</time></trkpt>
<trkpt lat="46.11603498" lon="7.52108574"><ele></ele><time>2014-4-2T15:2:53Z</time></trkpt>
<trkpt lat="46.11618519" lon="7.52072096"><ele></ele><time>2014-4-2T15:2:56Z</time></trkpt>
<trkpt lat="46.11618519" lon="7.52009869"><ele></ele><time>2014-4-2T15:2:59Z</time></trkpt>
<trkpt lat="46.11605644" lon="7.52046347"><ele></ele><time>2014-4-2T15:3:2Z</time></trkpt>
<trkpt lat="46.11588478" lon="7.52054930"><ele></ele><time>2014-4-2T15:3:5Z</time></trkpt>
<trkpt lat="46.11560583" lon="7.52020597"><ele></ele><time>2014-4-2T15:3:8Z</time></trkpt>
<trkpt lat="46.11562729" lon="7.52007723"><ele></ele><time>2014-4-2T15:3:11Z</time></trkpt>
<trkpt lat="46.11511230" lon="7.52027035"><ele></ele><time>2014-4-2T15:3:14Z</time></trkpt>
<trkpt lat="46.11455441" lon="7.52121449"><ele></ele><time>2014-4-2T15:3:17Z</time></trkpt>
<trkpt lat="46.11386776" lon="7.52145052"><ele></ele><time>2014-4-2T15:3:20Z</time></trkpt>
<trkpt lat="46.11354589" lon="7.52202988"><ele></ele><time>2014-4-2T15:3:23Z</time></trkpt>
<trkpt lat="46.11277342" lon="7.52258778"><ele></ele><time>2014-4-2T15:3:26Z</time></trkpt>
<trkpt lat="46.11247301" lon="7.52308130"><ele></ele><time>2014-4-2T15:3:29Z</time></trkpt>
<trkpt lat="46.11206532" lon="7.52331734"><ele></ele><time>2014-4-2T15:3:32Z</time></trkpt>
<trkpt lat="46.11178637" lon="7.52370358"><ele></ele><time>2014-4-2T15:3:35Z</time></trkpt>
<trkpt lat="46.11086369" lon="7.52316713"><ele></ele><time>2014-4-2T15:3:38Z</time></trkpt>
<trkpt lat="46.11037016" lon="7.52310276"><ele></ele><time>2014-4-2T15:3:41Z</time></trkpt>
<trkpt lat="46.11021996" lon="7.52402544"><ele></ele><time>2014-4-2T15:3:44Z</time></trkpt>
<trkpt lat="46.10983372" lon="7.52436876"><ele></ele><time>2014-4-2T15:3:47Z</time></trkpt>
<trkpt lat="46.11002684" lon="7.52366066"><ele></ele><time>2014-4-2T15:3:50Z</time></trkpt>
<trkpt lat="46.10996246" lon="7.52325296"><ele></ele><time>2014-4-2T15:3:53Z</time></trkpt>
<trkpt lat="46.10955477" lon="7.52222300"><ele></ele><time>2014-4-2T15:3:56Z</time></trkpt>
<trkpt lat="46.10942602" lon="7.52273798"><ele></ele><time>2014-4-2T15:3:59Z</time></trkpt>
<trkpt lat="46.10914707" lon="7.52196550"><ele></ele><time>2014-4-2T15:4:2Z</time></trkpt>
<trkpt lat="46.10923290" lon="7.52168655"><ele></ele><time>2014-4-2T15:4:5Z</time></trkpt>
<trkpt lat="46.10914707" lon="7.52166510"><ele></ele><time>2014-4-2T15:4:8Z</time></trkpt>
<trkpt lat="46.10899687" lon="7.52194405"><ele></ele><time>2014-4-2T15:4:11Z</time></trkpt>
<trkpt lat="46.10906124" lon="7.52299547"><ele></ele><time>2014-4-2T15:4:14Z</time></trkpt>
<trkpt lat="46.10895395" lon="7.52346754"><ele></ele><time>2014-4-2T15:4:17Z</time></trkpt>
<trkpt lat="46.10871792" lon="7.52359629"><ele></ele><time>2014-4-2T15:4:20Z</time></trkpt>
<trkpt lat="46.10798836" lon="7.52310276"><ele></ele><time>2014-4-2T15:4:23Z</time></trkpt>
<trkpt lat="46.10743046" lon="7.52374649"><ele></ele><time>2014-4-2T15:4:26Z</time></trkpt>
<trkpt lat="46.10708714" lon="7.52329588"><ele></ele><time>2014-4-2T15:4:29Z</time></trkpt>
<trkpt lat="46.10702276" lon="7.52297401"><ele></ele><time>2014-4-2T15:4:32Z</time></trkpt>
<trkpt lat="46.10663652" lon="7.52258778"><ele></ele><time>2014-4-2T15:4:35Z</time></trkpt>
<trkpt lat="46.10534906" lon="7.52170801"><ele></ele><time>2014-4-2T15:4:38Z</time></trkpt>
<trkpt lat="46.10468388" lon="7.52263069"><ele></ele><time>2014-4-2T15:4:41Z</time></trkpt>
<trkpt lat="46.10388994" lon="7.52209425"><ele></ele><time>2014-4-2T15:4:44Z</time></trkpt>
<trkpt lat="46.10444784" lon="7.52198696"><ele></ele><time>2014-4-2T15:4:47Z</time></trkpt>
<trkpt lat="46.10457659" lon="7.52166510"><ele></ele><time>2014-4-2T15:4:50Z</time></trkpt>
<trkpt lat="46.10451221" lon="7.52052784"><ele></ele><time>2014-4-2T15:4:53Z</time></trkpt>
<trkpt lat="46.10625029" lon="7.52035618"><ele></ele><time>2014-4-2T15:4:56Z</time></trkpt>
<trkpt lat="46.10652924" lon="7.52052784"><ele></ele><time>2014-4-2T15:4:59Z</time></trkpt>
<trkpt lat="46.10674381" lon="7.52089262"><ele></ele><time>2014-4-2T15:5:2Z</time></trkpt>
<trkpt lat="46.10687256" lon="7.52050638"><ele></ele><time>2014-4-2T15:5:5Z</time></trkpt>
<trkpt lat="46.10672235" lon="7.51915455"><ele></ele><time>2014-4-2T15:5:8Z</time></trkpt>
<trkpt lat="46.10678673" lon="7.51878977"><ele></ele><time>2014-4-2T15:5:11Z</time></trkpt>
<trkpt lat="46.10719442" lon="7.51808167"><ele></ele><time>2014-4-2T15:5:14Z</time></trkpt>
<trkpt lat="46.10721588" lon="7.51748085"><ele></ele><time>2014-4-2T15:5:17Z</time></trkpt>
<trkpt lat="46.10708714" lon="7.51816750"><ele></ele><time>2014-4-2T15:5:20Z</time></trkpt>
<trkpt lat="46.10659361" lon="7.51878977"><ele></ele><time>2014-4-2T15:5:23Z</time></trkpt>
<trkpt lat="46.10627174" lon="7.51971245"><ele></ele><time>2014-4-2T15:5:26Z</time></trkpt>
<trkpt lat="46.10558510" lon="7.51932621"><ele></ele><time>2014-4-2T15:5:29Z</time></trkpt>
<trkpt lat="46.10500574" lon="7.51848936"><ele></ele><time>2014-4-2T15:5:32Z</time></trkpt>
<trkpt lat="46.10412598" lon="7.51795292"><ele></ele><time>2014-4-2T15:5:35Z</time></trkpt>
<trkpt lat="46.10316038" lon="7.51874685"><ele></ele><time>2014-4-2T15:5:38Z</time></trkpt>
<trkpt lat="46.10316038" lon="7.51827478"><ele></ele><time>2014-4-2T15:5:41Z</time></trkpt>
<trkpt lat="46.10303164" lon="7.51818895"><ele></ele><time>2014-4-2T15:5:44Z</time></trkpt>
<trkpt lat="46.10174417" lon="7.51853228"><ele></ele><time>2014-4-2T15:5:47Z</time></trkpt>
<trkpt lat="46.10176563" lon="7.51833916"><ele></ele><time>2014-4-2T15:5:50Z</time></trkpt>
<trkpt lat="46.10213041" lon="7.51814604"><ele></ele><time>2014-4-2T15:5:53Z</time></trkpt>
<trkpt lat="46.10253811" lon="7.51754522"><ele></ele><time>2014-4-2T15:5:56Z</time></trkpt>
<trkpt lat="46.10290289" lon="7.51741648"><ele></ele><time>2014-4-2T15:5:59Z</time></trkpt>
<trkpt lat="46.10361099" lon="7.51666546"><ele></ele><time>2014-4-2T15:6:2Z</time></trkpt>
<trkpt lat="46.10358953" lon="7.51604319"><ele></ele><time>2014-4-2T15:6:5Z</time></trkpt>
<trkpt lat="46.10491991" lon="7.51608610"><ele></ele><time>2014-4-2T15:6:8Z</time></trkpt>
<trkpt lat="46.10513449" lon="7.51514196"><ele></ele><time>2014-4-2T15:6:11Z</time></trkpt>
<trkpt lat="46.10558510" lon="7.51426220"><ele></ele><time>2014-4-2T15:6:14Z</time></trkpt>
<trkpt lat="46.10554218" lon="7.51344681"><ele></ele><time>2014-4-2T15:6:17Z</time></trkpt>
<trkpt lat="46.10571384" lon="7.51331806"><ele></ele><time>2014-4-2T15:6:20Z</time></trkpt>
<trkpt lat="46.10567093" lon="7.51321077"><ele></ele><time>2014-4-2T15:6:23Z</time></trkpt>
<trkpt lat="46.10522032" lon="7.51303911"><ele></ele><time>2014-4-2T15:6:26Z</time></trkpt>
<trkpt lat="46.10438347" lon="7.51430511"><ele></ele><time>2014-4-2T15:6:29Z</time></trkpt>
<trkpt lat="46.10397577" lon="7.51454115"><ele></ele><time>2014-4-2T15:6:32Z</time></trkpt>
<trkpt lat="46.10303164" lon="7.51439095"><ele></ele><time>2014-4-2T15:6:35Z</time></trkpt>
<trkpt lat="46.10208750" lon="7.51394033"><ele></ele><time>2014-4-2T15:6:38Z</time></trkpt>
<trkpt lat="46.10028505" lon="7.51398325"><ele></ele><time>2014-4-2T15:6:41Z</time></trkpt>
<trkpt lat="46.09914780" lon="7.51466990"><ele></ele><time>2014-4-2T15:6:44Z</time></trkpt>
</trkseg></trk></gpx>